Time,TemperatureF,DewpointF,PressureIn,WindDirection,WindDirectionDegrees,WindSpeedMPH,WindSpeedGustMPH,Humidity,HourlyPrecipIn,Conditions,Clouds,dailyrainin,SoftwareType,DateUTC
2013-05-28 00:02:00,57.0,-99.9,29.98,ESE,119,3.0,5.0,-999,-99.99,,,-99.99,,2013-05-28 07:02:00,
2013-05-28 00:11:00,58.0,-99.9,29.98,WSW,246,5.0,8.0,-999,-99.99,,,-99.99,,2013-05-28 07:11:00,
2013-05-28 00:22:00,58.0,-99.9,29.98,WSW,243,4.0,9.0,-999,-99.99,,,-99.99,,2013-05-28 07:22:00,
2013-05-28 00:32:00,57.0,-99.9,29.99,WSW,243,6.0,13.0,-999,-99.99,,,-99.99,,2013-05-28 07:32:00,
2013-05-28 00:42:00,57.0,-99.9,29.98,NNE,27,2.0,8.0,-999,-99.99,,,-99.99,,2013-05-28 07:42:00,
2013-05-28 00:52:00,57.0,-99.9,29.98,NE,39,2.0,5.0,-999,-99.99,,,-99.99,,2013-05-28 07:52:00,
2013-05-28 01:02:00,57.0,-99.9,29.98,West,261,5.0,8.0,-999,-99.99,,,-99.99,,2013-05-28 08:02:00,
2013-05-28 01:12:00,57.0,-99.9,29.98,East,88,2.0,5.0,-999,-99.99,,,-99.99,,2013-05-28 08:12:00,
2013-05-28 01:22:00,57.0,-99.9,29.97,WSW,251,0.0,5.0,-999,-99.99,,,-99.99,,2013-05-28 08:22:00,
2013-05-28 01:32:00,57.0,-99.9,29.97,North,2,0.0,3.0,-999,-99.99,,,-99.99,,2013-05-28 08:32:00,
2013-05-28 01:42:00,57.0,-99.9,29.96,SW,230,1.0,3.0,-999,-99.99,,,-99.99,,2013-05-28 08:42:00,
2013-05-28 01:52:00,57.0,-99.9,29.96,SW,230,3.0,6.0,-999,-99.99,,,-99.99,,2013-05-28 08:52:00,
2013-05-28 02:01:00,57.0,-99.9,29.96,South,191,4.0,9.0,-999,-99.99,,,-99.99,,2013-05-28 09:01:00,
2013-05-28 02:11:00,57.0,-99.9,29.96,NW,321,1.0,4.0,-999,-99.99,,,-99.99,,2013-05-28 09:11:00,
2013-05-28 02:22:00,57.0,-99.9,29.96,SW,235,4.0,9.0,-999,-99.99,,,-99.99,,2013-05-28 09:22:00,
2013-05-28 02:33:00,57.0,-99.9,29.97,SW,236,9.0,13.0,-999,-99.99,,,-99.99,,2013-05-28 09:33:00,
2013-05-28 02:43:00,56.0,-99.9,29.96,SW,235,8.0,14.0,-999,-99.99,,,-99.99,,2013-05-28 09:43:00,
2013-05-28 02:54:00,56.0,-99.9,29.96,WSW,246,7.0,13.0,-999,-99.99,,,-99.99,,2013-05-28 09:54:00,
2013-05-28 03:03:00,56.0,-99.9,29.96,WSW,254,9.0,13.0,-999,-99.99,,,-99.99,,2013-05-28 10:03:00,
2013-05-28 03:12:00,56.0,-99.9,29.96,WSW,250,8.0,12.0,-999,-99.99,,,-99.99,,2013-05-28 10:12:00,
2013-05-28 03:23:00,56.0,-99.9,29.96,WSW,254,8.0,12.0,-999,-99.99,,,-99.99,,2013-05-28 10:23:00,
2013-05-28 03:32:00,56.0,-99.9,29.96,WSW,242,4.0,7.0,-999,-99.99,,,-99.99,,2013-05-28 10:32:00,
2013-05-28 03:43:00,56.0,-99.9,29.96,WSW,250,2.0,5.0,-999,-99.99,,,-99.99,,2013-05-28 10:43:00,
2013-05-28 03:53:00,56.0,-99.9,29.96,WSW,239,4.0,6.0,-999,-99.99,,,-99.99,,2013-05-28 10:53:00,
2013-05-28 04:03:00,56.0,-99.9,29.95,WNW,282,1.0,6.0,-999,-99.99,,,-99.99,,2013-05-28 11:03:00,
2013-05-28 04:12:00,56.0,-99.9,29.95,WNW,290,3.0,5.0,-999,-99.99,,,-99.99,,2013-05-28 11:12:00,
2013-05-28 04:23:00,56.0,-99.9,29.95,West,268,4.0,6.0,-999,-99.99,,,-99.99,,2013-05-28 11:23:00,
2013-05-28 04:32:00,56.0,-99.9,29.95,West,265,4.0,6.0,-999,-99.99,,,-99.99,,2013-05-28 11:32:00,
2013-05-28 04:42:00,56.0,-99.9,29.95,West,272,4.0,6.0,-999,-99.99,,,-99.99,,2013-05-28 11:42:00,
2013-05-28 04:52:00,56.0,-99.9,29.95,SW,231,2.0,6.0,-999,-99.99,,,-99.99,,2013-05-28 11:52:00,
2013-05-28 05:02:00,56.0,-99.9,29.96,WSW,256,4.0,5.0,-999,-99.99,,,-99.99,,2013-05-28 12:02:00,
2013-05-28 05:11:00,56.0,-99.9,29.96,West,262,5.0,7.0,-999,-99.99,,,-99.99,,2013-05-28 12:11:00,
2013-05-28 05:22:00,56.0,-99.9,29.94,SW,236,4.0,6.0,-999,-99.99,,,-99.99,,2013-05-28 12:22:00,
2013-05-28 05:32:00,56.0,-99.9,29.94,SSW,199,2.0,5.0,-999,-99.99,,,-99.99,,2013-05-28 12:32:00,
2013-05-28 05:42:00,56.0,-99.9,29.94,North,357,3.0,4.0,-999,-99.99,,,-99.99,,2013-05-28 12:42:00,
2013-05-28 05:52:00,56.0,-99.9,29.93,ENE,65,2.0,4.0,-999,-99.99,,,-99.99,,2013-05-28 12:52:00,
2013-05-28 06:01:00,56.0,-99.9,29.94,East,82,4.0,5.0,-999,-99.99,,,-99.99,,2013-05-28 13:01:00,
2013-05-28 06:11:00,56.0,-99.9,29.94,East,81,2.0,4.0,-999,-99.99,,,-99.99,,2013-05-28 13:11:00,
2013-05-28 06:22:00,56.0,-99.9,29.94,WNW,296,2.0,3.0,-999,-99.99,,,-99.99,,2013-05-28 13:22:00,
2013-05-28 06:32:00,56.0,-99.9,29.95,West,260,5.0,7.0,-999,-99.99,,,-99.99,,2013-05-28 13:32:00,
2013-05-28 06:42:00,56.0,-99.9,29.95,WSW,250,4.0,6.0,-999,-99.99,,,-99.99,,2013-05-28 13:42:00,
2013-05-28 06:52:00,56.0,-99.9,29.94,SW,231,3.0,5.0,-999,-99.99,,,-99.99,,2013-05-28 13:52:00,
2013-05-28 07:02:00,56.0,-99.9,29.95,SSW,206,1.0,7.0,-999,-99.99,,,-99.99,,2013-05-28 14:02:00,
2013-05-28 07:12:00,56.0,-99.9,29.95,NW,318,3.0,6.0,-999,-99.99,,,-99.99,,2013-05-28 14:12:00,
2013-05-28 07:22:00,56.0,-99.9,29.95,East,96,1.0,4.0,-999,-99.99,,,-99.99,,2013-05-28 14:22:00,
2013-05-28 07:32:00,56.0,-99.9,29.95,North,356,2.0,6.0,-999,-99.99,,,-99.99,,2013-05-28 14:32:00,
2013-05-28 07:42:00,57.0,-99.9,29.96,West,259,4.0,8.0,-999,-99.99,,,-99.99,,2013-05-28 14:42:00,
2013-05-28 07:52:00,56.0,-99.9,29.96,West,271,4.0,10.0,-999,-99.99,,,-99.99,,2013-05-28 14:52:00,
2013-05-28 08:01:00,56.0,-99.9,29.96,WNW,293,3.0,7.0,-999,-99.99,,,-99.99,,2013-05-28 15:01:00,
2013-05-28 08:11:00,56.0,-99.9,29.96,West,266,4.0,8.0,-999,-99.99,,,-99.99,,2013-05-28 15:11:00,
2013-05-28 08:21:00,56.0,-99.9,29.96,WNW,293,3.0,5.0,-999,-99.99,,,-99.99,,2013-05-28 15:21:00,
2013-05-28 08:33:00,57.0,-99.9,29.95,WNW,282,2.0,4.0,-999,-99.99,,,-99.99,,2013-05-28 15:33:00,
2013-05-28 08:43:00,58.0,-99.9,29.96,West,263,2.0,5.0,-999,-99.99,,,-99.99,,2013-05-28 15:43:00,
2013-05-28 08:53:00,58.0,-99.9,29.95,West,265,2.0,4.0,-999,-99.99,,,-99.99,,2013-05-28 15:53:00,
2013-05-28 09:03:00,58.0,-99.9,29.96,West,264,5.0,8.0,-999,-99.99,,,-99.99,,2013-05-28 16:03:00,
2013-05-28 09:13:00,58.0,-99.9,29.96,West,267,6.0,9.0,-999,-99.99,,,-99.99,,2013-05-28 16:13:00,
2013-05-28 09:23:00,59.0,-99.9,29.96,West,264,6.0,9.0,-999,-99.99,,,-99.99,,2013-05-28 16:23:00,
2013-05-28 09:33:00,59.0,-99.9,29.96,West,259,7.0,11.0,-999,-99.99,,,-99.99,,2013-05-28 16:33:00,
2013-05-28 09:42:00,59.0,-99.9,29.97,WSW,257,7.0,11.0,-999,-99.99,,,-99.99,,2013-05-28 16:42:00,
2013-05-28 09:53:00,59.0,-99.9,29.97,WSW,247,7.0,13.0,-999,-99.99,,,-99.99,,2013-05-28 16:53:00,
2013-05-28 10:02:00,59.0,-99.9,29.97,SW,228,5.0,11.0,-999,-99.99,,,-99.99,,2013-05-28 17:02:00,
2013-05-28 10:12:00,58.0,-99.9,29.97,WSW,257,8.0,13.0,-999,-99.99,,,-99.99,,2013-05-28 17:12:00,
2013-05-28 10:22:00,58.0,-99.9,29.98,WSW,258,10.0,13.0,-999,-99.99,,,-99.99,,2013-05-28 17:22:00,
2013-05-28 10:32:00,58.0,-99.9,29.97,West,265,7.0,11.0,-999,-99.99,,,-99.99,,2013-05-28 17:32:00,
2013-05-28 10:42:00,58.0,-99.9,29.98,WSW,254,9.0,13.0,-999,-99.99,,,-99.99,,2013-05-28 17:42:00,
2013-05-28 10:52:00,59.0,-99.9,29.97,WSW,241,8.0,14.0,-999,-99.99,,,-99.99,,2013-05-28 17:52:00,
2013-05-28 11:01:00,60.0,-99.9,29.96,WSW,248,6.0,9.0,-999,-99.99,,,-99.99,,2013-05-28 18:01:00,
2013-05-28 11:11:00,60.0,-99.9,29.97,WSW,255,7.0,13.0,-999,-99.99,,,-99.99,,2013-05-28 18:11:00,
2013-05-28 11:22:00,61.0,-99.9,29.97,West,261,7.0,11.0,-999,-99.99,,,-99.99,,2013-05-28 18:22:00,
2013-05-28 11:32:00,61.0,-99.9,29.97,West,262,9.0,17.0,-999,-99.99,,,-99.99,,2013-05-28 18:32:00,
2013-05-28 11:43:00,62.0,-99.9,29.97,WSW,242,8.0,13.0,-999,-99.99,,,-99.99,,2013-05-28 18:43:00,
2013-05-28 11:52:00,63.0,-99.9,29.97,WSW,246,10.0,16.0,-999,-99.99,,,-99.99,,2013-05-28 18:52:00,
2013-05-28 12:01:00,64.0,-99.9,29.97,WSW,254,8.0,12.0,-999,-99.99,,,-99.99,,2013-05-28 19:01:00,
2013-05-28 12:11:00,64.0,-99.9,29.98,West,260,8.0,12.0,-999,-99.99,,,-99.99,,2013-05-28 19:11:00,
2013-05-28 12:21:00,64.0,-99.9,29.97,West,273,9.0,13.0,-999,-99.99,,,-99.99,,2013-05-28 19:21:00,
2013-05-28 12:32:00,63.0,-99.9,29.97,WSW,257,11.0,19.0,-999,-99.99,,,-99.99,,2013-05-28 19:32:00,
2013-05-28 12:42:00,64.0,-99.9,29.98,WSW,253,7.0,14.0,-999,-99.99,,,-99.99,,2013-05-28 19:42:00,
2013-05-28 12:52:00,62.0,-99.9,29.98,WSW,258,13.0,18.0,-999,-99.99,,,-99.99,,2013-05-28 19:52:00,
2013-05-28 13:02:00,62.0,-99.9,29.97,WSW,252,11.0,19.0,-999,-99.99,,,-99.99,,2013-05-28 20:02:00,
2013-05-28 13:11:00,62.0,-99.9,29.97,WSW,250,9.0,18.0,-999,-99.99,,,-99.99,,2013-05-28 20:11:00,
2013-05-28 13:22:00,63.0,-99.9,29.97,WSW,249,6.0,14.0,-999,-99.99,,,-99.99,,2013-05-28 20:22:00,
2013-05-28 13:32:00,61.0,-99.9,29.96,West,265,13.0,19.0,-999,-99.99,,,-99.99,,2013-05-28 20:32:00,
2013-05-28 13:42:00,61.0,-99.9,29.97,WSW,258,12.0,17.0,-999,-99.99,,,-99.99,,2013-05-28 20:42:00,
2013-05-28 13:52:00,61.0,-99.9,29.97,WSW,255,15.0,23.0,-999,-99.99,,,-99.99,,2013-05-28 20:52:00,
2013-05-28 14:02:00,60.0,-99.9,29.97,WSW,257,16.0,22.0,-999,-99.99,,,-99.99,,2013-05-28 21:02:00,
2013-05-28 14:11:00,60.0,-99.9,29.97,WSW,249,13.0,21.0,-999,-99.99,,,-99.99,,2013-05-28 21:11:00,
2013-05-28 14:22:00,60.0,-99.9,29.97,WSW,254,11.0,18.0,-999,-99.99,,,-99.99,,2013-05-28 21:22:00,
2013-05-28 14:33:00,61.0,-99.9,29.96,West,262,10.0,17.0,-999,-99.99,,,-99.99,,2013-05-28 21:33:00,
2013-05-28 14:43:00,60.0,-99.9,29.96,WSW,251,13.0,22.0,-999,-99.99,,,-99.99,,2013-05-28 21:43:00,
2013-05-28 14:53:00,60.0,-99.9,29.96,WSW,256,15.0,23.0,-999,-99.99,,,-99.99,,2013-05-28 21:53:00,
2013-05-28 15:02:00,60.0,-99.9,29.96,West,259,16.0,24.0,-999,-99.99,,,-99.99,,2013-05-28 22:02:00,
2013-05-28 15:13:00,60.0,-99.9,29.96,West,259,15.0,23.0,-999,-99.99,,,-99.99,,2013-05-28 22:13:00,
2013-05-28 15:22:00,60.0,-99.9,29.97,WSW,249,15.0,21.0,-999,-99.99,,,-99.99,,2013-05-28 22:22:00,
2013-05-28 15:33:00,60.0,-99.9,29.97,WSW,253,16.0,21.0,-999,-99.99,,,-99.99,,2013-05-28 22:33:00,
2013-05-28 15:42:00,60.0,-99.9,29.97,WSW,257,15.0,23.0,-999,-99.99,,,-99.99,,2013-05-28 22:42:00,
2013-05-28 15:52:00,61.0,-99.9,29.96,WSW,250,10.0,18.0,-999,-99.99,,,-99.99,,2013-05-28 22:52:00,
2013-05-28 16:02:00,62.0,-99.9,29.96,West,259,12.0,20.0,-999,-99.99,,,-99.99,,2013-05-28 23:02:00,
2013-05-28 16:11:00,63.0,-99.9,29.96,WSW,258,10.0,21.0,-999,-99.99,,,-99.99,,2013-05-28 23:11:00,
2013-05-28 16:22:00,61.0,-99.9,29.95,WSW,252,15.0,21.0,-999,-99.99,,,-99.99,,2013-05-28 23:22:00,
2013-05-28 16:32:00,61.0,-99.9,29.95,WSW,244,11.0,23.0,-999,-99.99,,,-99.99,,2013-05-28 23:32:00,
2013-05-28 16:42:00,61.0,-99.9,29.95,WSW,254,13.0,21.0,-999,-99.99,,,-99.99,,2013-05-28 23:42:00,
2013-05-28 16:52:00,61.0,-99.9,29.94,West,259,11.0,20.0,-999,-99.99,,,-99.99,,2013-05-28 23:52:00,
2013-05-28 17:02:00,61.0,-99.9,29.94,WSW,256,14.0,22.0,-999,-99.99,,,-99.99,,2013-05-29 00:02:00,
2013-05-28 17:11:00,61.0,-99.9,29.94,WSW,257,13.0,20.0,-999,-99.99,,,-99.99,,2013-05-29 00:11:00,
2013-05-28 17:22:00,60.0,-99.9,29.94,WSW,256,15.0,25.0,-999,-99.99,,,-99.99,,2013-05-29 00:22:00,
2013-05-28 17:32:00,61.0,-99.9,29.93,WSW,250,9.0,20.0,-999,-99.99,,,-99.99,,2013-05-29 00:32:00,
2013-05-28 17:42:00,62.0,-99.9,29.93,WSW,247,11.0,20.0,-999,-99.99,,,-99.99,,2013-05-29 00:42:00,
2013-05-28 17:52:00,62.0,-99.9,29.93,West,259,14.0,21.0,-999,-99.99,,,-99.99,,2013-05-29 00:52:00,
2013-05-28 18:01:00,62.0,-99.9,29.92,WSW,258,14.0,18.0,-999,-99.99,,,-99.99,,2013-05-29 01:01:00,
2013-05-28 18:11:00,62.0,-99.9,29.92,West,260,9.0,20.0,-999,-99.99,,,-99.99,,2013-05-29 01:11:00,
2013-05-28 18:22:00,62.0,-99.9,29.91,WSW,256,10.0,16.0,-999,-99.99,,,-99.99,,2013-05-29 01:22:00,
2013-05-28 18:32:00,61.0,-99.9,29.91,WSW,255,9.0,16.0,-999,-99.99,,,-99.99,,2013-05-29 01:32:00,
2013-05-28 18:42:00,61.0,-99.9,29.91,WSW,255,13.0,19.0,-999,-99.99,,,-99.99,,2013-05-29 01:42:00,
2013-05-28 18:52:00,60.0,-99.9,29.92,WSW,246,9.0,18.0,-999,-99.99,,,-99.99,,2013-05-29 01:52:00,
2013-05-28 19:02:00,59.0,-99.9,29.92,WSW,246,10.0,20.0,-999,-99.99,,,-99.99,,2013-05-29 02:02:00,
2013-05-28 19:12:00,60.0,-99.9,29.92,WSW,246,11.0,19.0,-999,-99.99,,,-99.99,,2013-05-29 02:12:00,
2013-05-28 19:22:00,60.0,-99.9,29.91,WSW,242,10.0,16.0,-999,-99.99,,,-99.99,,2013-05-29 02:22:00,
2013-05-28 19:32:00,59.0,-99.9,29.91,WSW,257,11.0,17.0,-999,-99.99,,,-99.99,,2013-05-29 02:32:00,
2013-05-28 19:42:00,59.0,-99.9,29.92,WSW,243,12.0,20.0,-999,-99.99,,,-99.99,,2013-05-29 02:42:00,
2013-05-28 19:52:00,59.0,-99.9,29.92,WSW,248,7.0,15.0,-999,-99.99,,,-99.99,,2013-05-29 02:52:00,
2013-05-28 20:02:00,59.0,-99.9,29.92,WSW,248,7.0,15.0,-999,-99.99,,,-99.99,,2013-05-29 03:02:00,
2013-05-28 20:12:00,59.0,-99.9,29.92,WSW,254,13.0,19.0,-999,-99.99,,,-99.99,,2013-05-29 03:12:00,
2013-05-28 20:22:00,59.0,-99.9,29.92,WSW,253,9.0,15.0,-999,-99.99,,,-99.99,,2013-05-29 03:22:00,
2013-05-28 20:33:00,59.0,-99.9,29.92,WSW,247,9.0,11.0,-999,-99.99,,,-99.99,,2013-05-29 03:33:00,
2013-05-28 20:43:00,59.0,-99.9,29.93,WSW,247,10.0,17.0,-999,-99.99,,,-99.99,,2013-05-29 03:43:00,
2013-05-28 20:53:00,58.0,-99.9,29.93,WSW,238,8.0,13.0,-999,-99.99,,,-99.99,,2013-05-29 03:53:00,
2013-05-28 21:03:00,58.0,-99.9,29.93,WSW,238,8.0,13.0,-999,-99.99,,,-99.99,,2013-05-29 04:03:00,
2013-05-28 21:13:00,57.0,-99.9,29.92,WSW,249,9.0,13.0,-999,-99.99,,,-99.99,,2013-05-29 04:13:00,
2013-05-28 21:23:00,57.0,-99.9,29.92,WSW,247,8.0,16.0,-999,-99.99,,,-99.99,,2013-05-29 04:23:00,
2013-05-28 21:33:00,57.0,-99.9,29.92,WSW,247,8.0,16.0,-999,-99.99,,,-99.99,,2013-05-29 04:33:00,
2013-05-28 21:42:00,57.0,-99.9,29.93,WSW,254,10.0,15.0,-999,-99.99,,,-99.99,,2013-05-29 04:42:00,
2013-05-28 21:53:00,57.0,-99.9,29.92,WSW,256,6.0,10.0,-999,-99.99,,,-99.99,,2013-05-29 04:53:00,
2013-05-28 22:03:00,58.0,-99.9,29.93,West,264,4.0,8.0,-999,-99.99,,,-99.99,,2013-05-29 05:03:00,
2013-05-28 22:12:00,58.0,-99.9,29.92,WSW,247,3.0,6.0,-999,-99.99,,,-99.99,,2013-05-29 05:12:00,
2013-05-28 22:22:00,58.0,-99.9,29.92,WSW,254,3.0,4.0,-999,-99.99,,,-99.99,,2013-05-29 05:22:00,
2013-05-28 22:33:00,58.0,-99.9,29.91,SSW,195,3.0,7.0,-999,-99.99,,,-99.99,,2013-05-29 05:33:00,
2013-05-28 22:42:00,58.0,-99.9,29.92,SSW,201,3.0,6.0,-999,-99.99,,,-99.99,,2013-05-29 05:42:00,
2013-05-28 22:52:00,58.0,-99.9,29.91,SSW,205,2.0,6.0,-999,-99.99,,,-99.99,,2013-05-29 05:52:00,
2013-05-28 23:02:00,57.0,-99.9,29.93,WSW,253,10.0,14.0,-999,-99.99,,,-99.99,,2013-05-29 06:02:00,
2013-05-28 23:12:00,56.0,-99.9,29.93,WSW,246,8.0,15.0,-999,-99.99,,,-99.99,,2013-05-29 06:12:00,
2013-05-28 23:22:00,56.0,-99.9,29.95,West,260,8.0,19.0,-999,-99.99,,,-99.99,,2013-05-29 06:22:00,
2013-05-28 23:32:00,56.0,-99.9,29.95,West,260,8.0,19.0,-999,-99.99,,,-99.99,,2013-05-29 06:32:00,
2013-05-28 23:42:00,55.0,-99.9,29.94,WSW,258,11.0,17.0,-999,-99.99,,,-99.99,,2013-05-29 06:42:00,
2013-05-28 23:52:00,55.0,-99.9,29.94,WSW,257,14.0,19.0,-999,-99.99,,,-99.99,,2013-05-29 06:52:00,